sensor_id;sensor_type;location;lat;lon;timestamp;temperature;humidity
27671;DHT22;15077;49.704;9.908;2023-01-13T00:01:10;12.40;69.20
27671;DHT22;15077;49.704;9.908;2023-01-13T00:03:37;12.40;69.00
27671;DHT22;15077;49.704;9.908;2023-01-13T00:06:05;12.40;69.00
27671;DHT22;15077;49.704;9.908;2023-01-13T00:08:34;12.40;69.00
27671;DHT22;15077;49.704;9.908;2023-01-13T00:11:00;12.40;68.90
27671;DHT22;15077;49.704;9.908;2023-01-13T00:13:25;12.40;68.80
27671;DHT22;15077;49.704;9.908;2023-01-13T00:15:58;12.40;68.80
27671;DHT22;15077;49.704;9.908;2023-01-13T00:18:26;12.40;68.70
27671;DHT22;15077;49.704;9.908;2023-01-13T00:21:04;12.50;68.70
27671;DHT22;15077;49.704;9.908;2023-01-13T00:23:31;12.50;68.50
27671;DHT22;15077;49.704;9.908;2023-01-13T00:26:02;12.50;68.50
27671;DHT22;15077;49.704;9.908;2023-01-13T00:28:31;12.50;68.40
27671;DHT22;15077;49.704;9.908;2023-01-13T00:31:07;12.50;68.50
27671;DHT22;15077;49.704;9.908;2023-01-13T00:33:35;12.50;68.10
27671;DHT22;15077;49.704;9.908;2023-01-13T00:36:02;12.50;68.20
27671;DHT22;15077;49.704;9.908;2023-01-13T00:38:31;12.60;68.20
27671;DHT22;15077;49.704;9.908;2023-01-13T00:41:03;12.60;68.10
27671;DHT22;15077;49.704;9.908;2023-01-13T00:43:32;12.60;68.10
27671;DHT22;15077;49.704;9.908;2023-01-13T00:45:59;12.60;67.90
27671;DHT22;15077;49.704;9.908;2023-01-13T00:48:26;12.60;67.90
27671;DHT22;15077;49.704;9.908;2023-01-13T00:51:12;12.60;68.00
27671;DHT22;15077;49.704;9.908;2023-01-13T00:53:44;12.60;67.90
27671;DHT22;15077;49.704;9.908;2023-01-13T00:56:18;12.60;67.90
27671;DHT22;15077;49.704;9.908;2023-01-13T00:58:45;12.60;67.80
27671;DHT22;15077;49.704;9.908;2023-01-13T01:01:15;12.60;67.80
27671;DHT22;15077;49.704;9.908;2023-01-13T01:03:46;12.70;67.90
27671;DHT22;15077;49.704;9.908;2023-01-13T01:06:15;12.70;67.90
27671;DHT22;15077;49.704;9.908;2023-01-13T01:08:43;12.70;67.90
27671;DHT22;15077;49.704;9.908;2023-01-13T01:11:13;12.70;67.90
27671;DHT22;15077;49.704;9.908;2023-01-13T01:13:52;12.70;67.90
27671;DHT22;15077;49.704;9.908;2023-01-13T01:16:21;12.70;67.90
27671;DHT22;15077;49.704;9.908;2023-01-13T01:18:51;12.70;68.00
27671;DHT22;15077;49.704;9.908;2023-01-13T01:21:21;12.70;67.90
27671;DHT22;15077;49.704;9.908;2023-01-13T01:23:49;12.70;68.00
27671;DHT22;15077;49.704;9.908;2023-01-13T01:26:21;12.70;68.00
27671;DHT22;15077;49.704;9.908;2023-01-13T01:28:48;12.70;68.00
27671;DHT22;15077;49.704;9.908;2023-01-13T01:31:17;12.70;68.10
27671;DHT22;15077;49.704;9.908;2023-01-13T01:33:44;12.70;68.10
27671;DHT22;15077;49.704;9.908;2023-01-13T01:36:12;12.70;68.20
27671;DHT22;15077;49.704;9.908;2023-01-13T01:38:39;12.70;68.20
27671;DHT22;15077;49.704;9.908;2023-01-13T01:41:05;12.70;68.20
27671;DHT22;15077;49.704;9.908;2023-01-13T01:43:48;12.70;68.30
27671;DHT22;15077;49.704;9.908;2023-01-13T01:49:06;12.70;68.40
27671;DHT22;15077;49.704;9.908;2023-01-13T01:51:57;12.80;68.50
27671;DHT22;15077;49.704;9.908;2023-01-13T01:54:56;12.70;68.50
27671;DHT22;15077;49.704;9.908;2023-01-13T01:57:40;12.70;68.50
27671;DHT22;15077;49.704;9.908;2023-01-13T02:00:13;12.70;68.70
27671;DHT22;15077;49.704;9.908;2023-01-13T02:02:41;12.70;68.70
27671;DHT22;15077;49.704;9.908;2023-01-13T02:05:11;12.70;68.80
27671;DHT22;15077;49.704;9.908;2023-01-13T02:07:43;12.70;68.90
27671;DHT22;15077;49.704;9.908;2023-01-13T02:10:14;12.70;69.10
27671;DHT22;15077;49.704;9.908;2023-01-13T02:12:44;12.60;69.10
27671;DHT22;15077;49.704;9.908;2023-01-13T02:15:17;12.60;69.20
27671;DHT22;15077;49.704;9.908;2023-01-13T02:30:25;12.50;70.00
27671;DHT22;15077;49.704;9.908;2023-01-13T02:36:23;12.40;70.20
27671;DHT22;15077;49.704;9.908;2023-01-13T02:41:57;12.40;70.20
27671;DHT22;15077;49.704;9.908;2023-01-13T02:44:49;12.40;70.70
27671;DHT22;15077;49.704;9.908;2023-01-13T02:47:22;12.40;70.20
27671;DHT22;15077;49.704;9.908;2023-01-13T02:50:03;12.40;70.20
27671;DHT22;15077;49.704;9.908;2023-01-13T02:52:48;12.40;70.30
27671;DHT22;15077;49.704;9.908;2023-01-13T02:55:38;12.40;70.40
27671;DHT22;15077;49.704;9.908;2023-01-13T02:58:12;12.40;70.50
27671;DHT22;15077;49.704;9.908;2023-01-13T03:00:42;12.30;70.50
27671;DHT22;15077;49.704;9.908;2023-01-13T03:03:09;12.30;70.50
27671;DHT22;15077;49.704;9.908;2023-01-13T03:05:36;12.30;70.50
27671;DHT22;15077;49.704;9.908;2023-01-13T03:11:06;12.30;71.00
27671;DHT22;15077;49.704;9.908;2023-01-13T03:13:46;12.30;71.20
27671;DHT22;15077;49.704;9.908;2023-01-13T03:16:52;12.20;71.20
27671;DHT22;15077;49.704;9.908;2023-01-13T03:19:58;12.20;71.50
27671;DHT22;15077;49.704;9.908;2023-01-13T03:25:55;12.20;71.70
27671;DHT22;15077;49.704;9.908;2023-01-13T03:28:35;12.20;72.00
27671;DHT22;15077;49.704;9.908;2023-01-13T03:31:12;12.10;71.80
27671;DHT22;15077;49.704;9.908;2023-01-13T03:34:02;12.10;72.00
27671;DHT22;15077;49.704;9.908;2023-01-13T03:36:37;12.10;72.00
27671;DHT22;15077;49.704;9.908;2023-01-13T03:39:10;12.10;72.00
27671;DHT22;15077;49.704;9.908;2023-01-13T03:41:51;12.20;72.00
27671;DHT22;15077;49.704;9.908;2023-01-13T03:44:52;12.20;72.10
27671;DHT22;15077;49.704;9.908;2023-01-13T03:50:16;12.20;72.00
27671;DHT22;15077;49.704;9.908;2023-01-13T03:53:02;12.20;72.00
27671;DHT22;15077;49.704;9.908;2023-01-13T03:55:44;12.20;72.00
27671;DHT22;15077;49.704;9.908;2023-01-13T03:58:23;12.20;72.00
27671;DHT22;15077;49.704;9.908;2023-01-13T04:01:01;12.30;72.10
27671;DHT22;15077;49.704;9.908;2023-01-13T04:03:41;12.30;72.00
27671;DHT22;15077;49.704;9.908;2023-01-13T04:09:51;12.30;72.00
27671;DHT22;15077;49.704;9.908;2023-01-13T04:12:32;12.30;72.00
27671;DHT22;15077;49.704;9.908;2023-01-13T04:15:34;12.30;71.90
27671;DHT22;15077;49.704;9.908;2023-01-13T04:18:14;12.30;71.80
27671;DHT22;15077;49.704;9.908;2023-01-13T04:20:45;12.30;71.90
27671;DHT22;15077;49.704;9.908;2023-01-13T04:23:12;12.30;71.80
27671;DHT22;15077;49.704;9.908;2023-01-13T04:25:43;12.30;71.80
27671;DHT22;15077;49.704;9.908;2023-01-13T04:28:11;12.30;71.90
27671;DHT22;15077;49.704;9.908;2023-01-13T04:30:41;12.40;71.90
27671;DHT22;15077;49.704;9.908;2023-01-13T04:33:10;12.40;71.90
27671;DHT22;15077;49.704;9.908;2023-01-13T04:35:38;12.40;72.00
27671;DHT22;15077;49.704;9.908;2023-01-13T04:38:10;12.30;72.00
27671;DHT22;15077;49.704;9.908;2023-01-13T04:40:41;12.30;72.20
27671;DHT22;15077;49.704;9.908;2023-01-13T04:43:07;12.30;72.10
27671;DHT22;15077;49.704;9.908;2023-01-13T04:45:34;12.30;72.10
27671;DHT22;15077;49.704;9.908;2023-01-13T04:48:02;12.30;72.30
27671;DHT22;15077;49.704;9.908;2023-01-13T04:50:29;12.30;72.40
27671;DHT22;15077;49.704;9.908;2023-01-13T04:52:55;12.30;72.40
27671;DHT22;15077;49.704;9.908;2023-01-13T04:55:22;12.30;72.50
27671;DHT22;15077;49.704;9.908;2023-01-13T04:57:49;12.30;72.60
27671;DHT22;15077;49.704;9.908;2023-01-13T05:00:16;12.30;72.60
27671;DHT22;15077;49.704;9.908;2023-01-13T05:02:44;12.20;72.70
27671;DHT22;15077;49.704;9.908;2023-01-13T05:05:10;12.30;72.70
27671;DHT22;15077;49.704;9.908;2023-01-13T05:07:36;12.30;72.70
27671;DHT22;15077;49.704;9.908;2023-01-13T05:10:03;12.20;72.70
27671;DHT22;15077;49.704;9.908;2023-01-13T05:12:29;12.20;72.70
27671;DHT22;15077;49.704;9.908;2023-01-13T05:15:14;12.20;72.80
27671;DHT22;15077;49.704;9.908;2023-01-13T05:17:59;12.20;72.90
27671;DHT22;15077;49.704;9.908;2023-01-13T05:20:25;12.20;72.80
27671;DHT22;15077;49.704;9.908;2023-01-13T05:22:52;12.20;72.80
27671;DHT22;15077;49.704;9.908;2023-01-13T05:25:40;12.20;73.00
27671;DHT22;15077;49.704;9.908;2023-01-13T05:28:08;12.20;73.00
27671;DHT22;15077;49.704;9.908;2023-01-13T05:30:52;12.10;73.00
27671;DHT22;15077;49.704;9.908;2023-01-13T05:33:18;12.10;73.20
27671;DHT22;15077;49.704;9.908;2023-01-13T05:35:45;12.10;73.20
27671;DHT22;15077;49.704;9.908;2023-01-13T05:38:12;12.10;73.20
27671;DHT22;15077;49.704;9.908;2023-01-13T05:40:39;12.10;73.20
27671;DHT22;15077;49.704;9.908;2023-01-13T05:43:25;12.10;73.40
27671;DHT22;15077;49.704;9.908;2023-01-13T05:46:04;12.10;73.30
27671;DHT22;15077;49.704;9.908;2023-01-13T05:48:35;12.10;73.60
27671;DHT22;15077;49.704;9.908;2023-01-13T05:51:04;12.10;73.50
27671;DHT22;15077;49.704;9.908;2023-01-13T05:53:32;12.10;73.40
27671;DHT22;15077;49.704;9.908;2023-01-13T05:55:59;12.10;73.50
27671;DHT22;15077;49.704;9.908;2023-01-13T05:58:28;12.10;73.50
27671;DHT22;15077;49.704;9.908;2023-01-13T06:01:02;12.10;73.60
27671;DHT22;15077;49.704;9.908;2023-01-13T06:03:32;12.10;73.80
27671;DHT22;15077;49.704;9.908;2023-01-13T06:05:58;12.10;73.90
27671;DHT22;15077;49.704;9.908;2023-01-13T06:08:26;12.10;73.90
27671;DHT22;15077;49.704;9.908;2023-01-13T06:10:52;12.10;74.00
27671;DHT22;15077;49.704;9.908;2023-01-13T06:13:18;12.10;73.90
27671;DHT22;15077;49.704;9.908;2023-01-13T06:15:44;12.10;73.90
27671;DHT22;15077;49.704;9.908;2023-01-13T06:18:09;12.10;74.00
27671;DHT22;15077;49.704;9.908;2023-01-13T06:20:35;12.10;74.10
27671;DHT22;15077;49.704;9.908;2023-01-13T06:23:02;12.10;74.30
27671;DHT22;15077;49.704;9.908;2023-01-13T06:26:04;12.10;74.30
27671;DHT22;15077;49.704;9.908;2023-01-13T06:28:36;12.10;74.70
27671;DHT22;15077;49.704;9.908;2023-01-13T06:31:05;12.00;74.30
27671;DHT22;15077;49.704;9.908;2023-01-13T06:33:36;12.00;74.30
27671;DHT22;15077;49.704;9.908;2023-01-13T06:36:11;12.00;74.30
27671;DHT22;15077;49.704;9.908;2023-01-13T06:38:41;12.00;74.40
27671;DHT22;15077;49.704;9.908;2023-01-13T06:41:11;12.00;74.30
27671;DHT22;15077;49.704;9.908;2023-01-13T06:43:38;12.00;74.30
27671;DHT22;15077;49.704;9.908;2023-01-13T06:46:04;12.00;74.80
27671;DHT22;15077;49.704;9.908;2023-01-13T06:48:33;12.00;74.40
27671;DHT22;15077;49.704;9.908;2023-01-13T06:51:00;12.00;74.40
27671;DHT22;15077;49.704;9.908;2023-01-13T06:53:27;12.00;74.40
27671;DHT22;15077;49.704;9.908;2023-01-13T06:55:52;12.00;74.30
27671;DHT22;15077;49.704;9.908;2023-01-13T06:58:18;12.00;74.50
27671;DHT22;15077;49.704;9.908;2023-01-13T07:00:44;12.00;74.30
27671;DHT22;15077;49.704;9.908;2023-01-13T07:03:15;12.00;74.30
27671;DHT22;15077;49.704;9.908;2023-01-13T07:05:49;12.00;74.50
27671;DHT22;15077;49.704;9.908;2023-01-13T07:08:16;12.00;74.40
27671;DHT22;15077;49.704;9.908;2023-01-13T07:10:42;12.00;74.30
27671;DHT22;15077;49.704;9.908;2023-01-13T07:13:08;12.00;75.10
27671;DHT22;15077;49.704;9.908;2023-01-13T07:15:57;12.00;74.50
27671;DHT22;15077;49.704;9.908;2023-01-13T07:18:28;12.00;74.60
27671;DHT22;15077;49.704;9.908;2023-01-13T07:21:04;12.00;74.50
27671;DHT22;15077;49.704;9.908;2023-01-13T07:23:36;12.00;74.60
27671;DHT22;15077;49.704;9.908;2023-01-13T07:26:05;12.00;74.50
27671;DHT22;15077;49.704;9.908;2023-01-13T07:28:32;12.00;74.50
27671;DHT22;15077;49.704;9.908;2023-01-13T07:30:59;12.00;74.40
27671;DHT22;15077;49.704;9.908;2023-01-13T07:33:25;12.00;74.50
27671;DHT22;15077;49.704;9.908;2023-01-13T07:35:59;12.00;74.60
27671;DHT22;15077;49.704;9.908;2023-01-13T07:38:26;12.00;74.70
27671;DHT22;15077;49.704;9.908;2023-01-13T07:40:52;12.00;74.50
27671;DHT22;15077;49.704;9.908;2023-01-13T07:43:18;12.00;74.40
27671;DHT22;15077;49.704;9.908;2023-01-13T07:46:05;12.00;74.50
27671;DHT22;15077;49.704;9.908;2023-01-13T07:48:32;12.10;74.80
27671;DHT22;15077;49.704;9.908;2023-01-13T07:51:04;12.10;74.60
27671;DHT22;15077;49.704;9.908;2023-01-13T07:53:32;12.10;74.70
27671;DHT22;15077;49.704;9.908;2023-01-13T07:55:59;12.10;74.60
27671;DHT22;15077;49.704;9.908;2023-01-13T07:58:26;12.10;73.90
27671;DHT22;15077;49.704;9.908;2023-01-13T08:00:53;12.00;73.60
27671;DHT22;15077;49.704;9.908;2023-01-13T08:03:20;12.00;73.20
27671;DHT22;15077;49.704;9.908;2023-01-13T08:05:47;12.00;73.00
27671;DHT22;15077;49.704;9.908;2023-01-13T08:08:13;11.90;72.70
27671;DHT22;15077;49.704;9.908;2023-01-13T08:10:39;11.90;72.60
27671;DHT22;15077;49.704;9.908;2023-01-13T08:15:49;11.80;72.60
27671;DHT22;15077;49.704;9.908;2023-01-13T08:18:17;11.80;72.60
27671;DHT22;15077;49.704;9.908;2023-01-13T08:20:47;11.70;73.10
27671;DHT22;15077;49.704;9.908;2023-01-13T08:23:13;11.70;72.40
27671;DHT22;15077;49.704;9.908;2023-01-13T08:25:39;11.60;72.50
27671;DHT22;15077;49.704;9.908;2023-01-13T08:28:05;11.60;72.60
27671;DHT22;15077;49.704;9.908;2023-01-13T08:30:31;11.60;72.60
27671;DHT22;15077;49.704;9.908;2023-01-13T08:32:57;11.50;72.60
27671;DHT22;15077;49.704;9.908;2023-01-13T08:35:23;11.50;72.60
27671;DHT22;15077;49.704;9.908;2023-01-13T08:37:49;11.50;72.80
27671;DHT22;15077;49.704;9.908;2023-01-13T08:40:17;11.50;72.80
27671;DHT22;15077;49.704;9.908;2023-01-13T08:42:45;11.40;72.90
27671;DHT22;15077;49.704;9.908;2023-01-13T08:45:12;11.40;72.90
27671;DHT22;15077;49.704;9.908;2023-01-13T08:47:39;11.40;73.00
27671;DHT22;15077;49.704;9.908;2023-01-13T08:50:05;11.40;73.00
27671;DHT22;15077;49.704;9.908;2023-01-13T08:52:31;11.40;73.00
27671;DHT22;15077;49.704;9.908;2023-01-13T08:54:57;11.40;72.90
27671;DHT22;15077;49.704;9.908;2023-01-13T08:57:22;11.40;72.80
27671;DHT22;15077;49.704;9.908;2023-01-13T08:59:48;11.40;72.70
27671;DHT22;15077;49.704;9.908;2023-01-13T09:02:17;11.40;72.50
27671;DHT22;15077;49.704;9.908;2023-01-13T09:04:45;11.40;72.50
27671;DHT22;15077;49.704;9.908;2023-01-13T09:07:11;11.40;72.50
27671;DHT22;15077;49.704;9.908;2023-01-13T09:09:38;11.40;72.60
27671;DHT22;15077;49.704;9.908;2023-01-13T09:12:04;11.30;72.60
27671;DHT22;15077;49.704;9.908;2023-01-13T09:14:50;11.30;72.70
27671;DHT22;15077;49.704;9.908;2023-01-13T09:17:16;11.40;72.90
27671;DHT22;15077;49.704;9.908;2023-01-13T09:19:42;11.40;72.90
27671;DHT22;15077;49.704;9.908;2023-01-13T09:22:13;11.40;72.90
27671;DHT22;15077;49.704;9.908;2023-01-13T09:24:40;11.40;73.10
27671;DHT22;15077;49.704;9.908;2023-01-13T09:27:07;11.50;73.00
27671;DHT22;15077;49.704;9.908;2023-01-13T09:29:34;11.50;72.80
27671;DHT22;15077;49.704;9.908;2023-01-13T09:31:59;11.50;72.60
27671;DHT22;15077;49.704;9.908;2023-01-13T09:34:25;11.50;72.60
27671;DHT22;15077;49.704;9.908;2023-01-13T09:37:09;11.60;72.60
27671;DHT22;15077;49.704;9.908;2023-01-13T09:39:35;11.60;72.50
27671;DHT22;15077;49.704;9.908;2023-01-13T09:42:14;11.60;72.70
27671;DHT22;15077;49.704;9.908;2023-01-13T09:45:26;11.60;72.60
27671;DHT22;15077;49.704;9.908;2023-01-13T09:48:33;11.60;72.50
27671;DHT22;15077;49.704;9.908;2023-01-13T09:51:25;11.60;72.40
27671;DHT22;15077;49.704;9.908;2023-01-13T09:54:00;11.60;72.40
27671;DHT22;15077;49.704;9.908;2023-01-13T09:56:29;11.60;72.30
27671;DHT22;15077;49.704;9.908;2023-01-13T09:58:56;11.60;72.30
27671;DHT22;15077;49.704;9.908;2023-01-13T10:01:33;11.60;72.20
27671;DHT22;15077;49.704;9.908;2023-01-13T10:04:13;11.60;72.10
27671;DHT22;15077;49.704;9.908;2023-01-13T10:06:43;11.60;72.10
27671;DHT22;15077;49.704;9.908;2023-01-13T10:09:24;11.60;72.80
27671;DHT22;15077;49.704;9.908;2023-01-13T10:11:56;11.60;72.10
27671;DHT22;15077;49.704;9.908;2023-01-13T10:14:56;11.60;72.10
27671;DHT22;15077;49.704;9.908;2023-01-13T10:17:36;11.60;72.10
27671;DHT22;15077;49.704;9.908;2023-01-13T10:20:28;11.60;72.30
27671;DHT22;15077;49.704;9.908;2023-01-13T10:26:31;11.80;72.80
27671;DHT22;15077;49.704;9.908;2023-01-13T10:29:18;12.00;74.10
27671;DHT22;15077;49.704;9.908;2023-01-13T10:31:55;12.40;74.30
27671;DHT22;15077;49.704;9.908;2023-01-13T10:34:23;12.80;74.20
27671;DHT22;15077;49.704;9.908;2023-01-13T10:42:06;13.90;69.70
27671;DHT22;15077;49.704;9.908;2023-01-13T10:44:55;14.30;70.10
27671;DHT22;15077;49.704;9.908;2023-01-13T10:47:28;14.60;69.30
27671;DHT22;15077;49.704;9.908;2023-01-13T10:52:40;15.10;67.20
27671;DHT22;15077;49.704;9.908;2023-01-13T10:55:31;15.40;65.80
27671;DHT22;15077;49.704;9.908;2023-01-13T10:58:18;15.60;66.50
27671;DHT22;15077;49.704;9.908;2023-01-13T11:00:46;15.80;65.20
27671;DHT22;15077;49.704;9.908;2023-01-13T11:03:20;15.90;65.10
27671;DHT22;15077;49.704;9.908;2023-01-13T11:05:58;16.10;64.30
27671;DHT22;15077;49.704;9.908;2023-01-13T11:08:48;16.10;63.80
27671;DHT22;15077;49.704;9.908;2023-01-13T11:11:36;16.20;62.90
27671;DHT22;15077;49.704;9.908;2023-01-13T11:14:19;16.30;63.50
27671;DHT22;15077;49.704;9.908;2023-01-13T11:19:53;16.30;60.90
27671;DHT22;15077;49.704;9.908;2023-01-13T11:22:30;16.10;60.30
27671;DHT22;15077;49.704;9.908;2023-01-13T11:25:30;15.90;60.20
27671;DHT22;15077;49.704;9.908;2023-01-13T11:28:04;15.60;60.00
27671;DHT22;15077;49.704;9.908;2023-01-13T11:30:59;15.30;60.10
27671;DHT22;15077;49.704;9.908;2023-01-13T11:36:27;14.70;61.10
27671;DHT22;15077;49.704;9.908;2023-01-13T11:39:24;14.60;61.40
27671;DHT22;15077;49.704;9.908;2023-01-13T11:45:16;14.20;61.80
27671;DHT22;15077;49.704;9.908;2023-01-13T11:47:48;14.10;62.50
27671;DHT22;15077;49.704;9.908;2023-01-13T11:50:59;14.00;62.60
27671;DHT22;15077;49.704;9.908;2023-01-13T12:00:03;13.60;62.10
27671;DHT22;15077;49.704;9.908;2023-01-13T12:06:01;13.30;62.90
27671;DHT22;15077;49.704;9.908;2023-01-13T12:15:12;13.00;64.80
27671;DHT22;15077;49.704;9.908;2023-01-13T12:23:33;13.00;66.10
27671;DHT22;15077;49.704;9.908;2023-01-13T12:26:10;13.20;67.00
27671;DHT22;15077;49.704;9.908;2023-01-13T12:31:18;13.60;66.50
27671;DHT22;15077;49.704;9.908;2023-01-13T12:36:31;14.00;64.70
27671;DHT22;15077;49.704;9.908;2023-01-13T12:39:18;14.20;62.40
27671;DHT22;15077;49.704;9.908;2023-01-13T12:42:20;14.40;63.60
27671;DHT22;15077;49.704;9.908;2023-01-13T12:45:32;14.50;63.00
27671;DHT22;15077;49.704;9.908;2023-01-13T12:47:59;14.60;61.20
27671;DHT22;15077;49.704;9.908;2023-01-13T12:53:30;14.60;60.80
27671;DHT22;15077;49.704;9.908;2023-01-13T12:56:21;14.60;61.10
27671;DHT22;15077;49.704;9.908;2023-01-13T13:01:42;14.50;59.50
27671;DHT22;15077;49.704;9.908;2023-01-13T13:04:16;14.40;59.30
27671;DHT22;15077;49.704;9.908;2023-01-13T13:07:13;14.40;59.40
27671;DHT22;15077;49.704;9.908;2023-01-13T13:13:00;14.20;59.70
27671;DHT22;15077;49.704;9.908;2023-01-13T13:15:49;14.10;59.90
27671;DHT22;15077;49.704;9.908;2023-01-13T13:23:34;14.00;60.00
27671;DHT22;15077;49.704;9.908;2023-01-13T13:29:07;13.90;60.10
27671;DHT22;15077;49.704;9.908;2023-01-13T13:41:15;13.40;58.60
27671;DHT22;15077;49.704;9.908;2023-01-13T13:44:18;13.30;58.80
27671;DHT22;15077;49.704;9.908;2023-01-13T13:47:09;13.20;59.00
27671;DHT22;15077;49.704;9.908;2023-01-13T13:49:40;13.10;59.70
27671;DHT22;15077;49.704;9.908;2023-01-13T13:54:54;12.90;59.50
27671;DHT22;15077;49.704;9.908;2023-01-13T13:57:32;12.90;59.80
27671;DHT22;15077;49.704;9.908;2023-01-13T14:00:06;12.80;60.00
27671;DHT22;15077;49.704;9.908;2023-01-13T14:02:50;12.80;60.00
27671;DHT22;15077;49.704;9.908;2023-01-13T14:05:24;12.70;60.10
27671;DHT22;15077;49.704;9.908;2023-01-13T14:08:14;12.60;60.50
27671;DHT22;15077;49.704;9.908;2023-01-13T14:10:43;12.60;60.50
27671;DHT22;15077;49.704;9.908;2023-01-13T14:13:30;12.50;60.60
27671;DHT22;15077;49.704;9.908;2023-01-13T14:16:05;12.50;60.80
27671;DHT22;15077;49.704;9.908;2023-01-13T14:18:45;12.40;60.70
27671;DHT22;15077;49.704;9.908;2023-01-13T14:21:21;12.30;60.90
27671;DHT22;15077;49.704;9.908;2023-01-13T14:23:55;12.30;61.10
27671;DHT22;15077;49.704;9.908;2023-01-13T14:26:26;12.20;61.50
27671;DHT22;15077;49.704;9.908;2023-01-13T14:28:56;12.20;61.80
27671;DHT22;15077;49.704;9.908;2023-01-13T14:31:24;12.20;62.10
27671;DHT22;15077;49.704;9.908;2023-01-13T14:33:53;12.20;61.80
27671;DHT22;15077;49.704;9.908;2023-01-13T14:46:52;12.10;61.30
27671;DHT22;15077;49.704;9.908;2023-01-13T14:49:37;12.00;61.30
27671;DHT22;15077;49.704;9.908;2023-01-13T14:52:20;12.00;60.60
27671;DHT22;15077;49.704;9.908;2023-01-13T14:54:50;11.90;60.60
27671;DHT22;15077;49.704;9.908;2023-01-13T15:05:28;11.80;60.60
27671;DHT22;15077;49.704;9.908;2023-01-13T15:10:48;11.70;61.00
27671;DHT22;15077;49.704;9.908;2023-01-13T15:16:10;11.70;61.60
27671;DHT22;15077;49.704;9.908;2023-01-13T15:18:45;11.70;61.90
27671;DHT22;15077;49.704;9.908;2023-01-13T15:21:12;11.60;62.10
27671;DHT22;15077;49.704;9.908;2023-01-13T15:23:40;11.60;62.30
27671;DHT22;15077;49.704;9.908;2023-01-13T15:26:20;11.50;62.50
27671;DHT22;15077;49.704;9.908;2023-01-13T15:28:47;11.50;62.80
27671;DHT22;15077;49.704;9.908;2023-01-13T15:31:13;11.40;62.90
27671;DHT22;15077;49.704;9.908;2023-01-13T15:33:39;11.30;63.30
27671;DHT22;15077;49.704;9.908;2023-01-13T15:36:31;11.30;63.60
27671;DHT22;15077;49.704;9.908;2023-01-13T15:38:58;11.20;63.80
27671;DHT22;15077;49.704;9.908;2023-01-13T15:41:25;11.20;64.00
27671;DHT22;15077;49.704;9.908;2023-01-13T15:44:10;11.20;64.10
27671;DHT22;15077;49.704;9.908;2023-01-13T15:46:56;11.10;64.20
27671;DHT22;15077;49.704;9.908;2023-01-13T15:49:39;11.10;64.40
27671;DHT22;15077;49.704;9.908;2023-01-13T15:52:24;11.00;64.50
27671;DHT22;15077;49.704;9.908;2023-01-13T15:54:51;11.00;64.70
27671;DHT22;15077;49.704;9.908;2023-01-13T15:57:26;11.00;64.60
27671;DHT22;15077;49.704;9.908;2023-01-13T15:59:59;10.90;64.70
27671;DHT22;15077;49.704;9.908;2023-01-13T16:02:27;10.90;64.60
27671;DHT22;15077;49.704;9.908;2023-01-13T16:04:54;10.90;64.60
27671;DHT22;15077;49.704;9.908;2023-01-13T16:07:22;10.80;64.60
27671;DHT22;15077;49.704;9.908;2023-01-13T16:09:49;10.80;64.50
27671;DHT22;15077;49.704;9.908;2023-01-13T16:12:15;10.70;64.50
27671;DHT22;15077;49.704;9.908;2023-01-13T16:14:41;10.70;64.50
27671;DHT22;15077;49.704;9.908;2023-01-13T16:17:23;10.70;64.50
27671;DHT22;15077;49.704;9.908;2023-01-13T16:19:51;10.70;64.60
27671;DHT22;15077;49.704;9.908;2023-01-13T16:22:17;10.60;64.60
27671;DHT22;15077;49.704;9.908;2023-01-13T16:24:43;10.60;64.70
27671;DHT22;15077;49.704;9.908;2023-01-13T16:27:21;10.50;64.80
27671;DHT22;15077;49.704;9.908;2023-01-13T16:29:48;10.50;65.00
27671;DHT22;15077;49.704;9.908;2023-01-13T16:32:16;10.50;65.00
27671;DHT22;15077;49.704;9.908;2023-01-13T16:34:42;10.50;65.10
27671;DHT22;15077;49.704;9.908;2023-01-13T16:37:20;10.50;65.30
27671;DHT22;15077;49.704;9.908;2023-01-13T16:39:48;10.40;65.30
27671;DHT22;15077;49.704;9.908;2023-01-13T16:42:14;10.40;65.40
27671;DHT22;15077;49.704;9.908;2023-01-13T16:44:40;10.40;65.50
27671;DHT22;15077;49.704;9.908;2023-01-13T16:47:13;10.40;65.60
27671;DHT22;15077;49.704;9.908;2023-01-13T16:49:40;10.40;65.80
27671;DHT22;15077;49.704;9.908;2023-01-13T16:52:06;10.40;65.80
27671;DHT22;15077;49.704;9.908;2023-01-13T16:54:32;10.40;65.80
27671;DHT22;15077;49.704;9.908;2023-01-13T16:56:58;10.40;65.80
27671;DHT22;15077;49.704;9.908;2023-01-13T16:59:23;10.40;65.80
27671;DHT22;15077;49.704;9.908;2023-01-13T17:01:49;10.40;65.90
27671;DHT22;15077;49.704;9.908;2023-01-13T17:04:19;10.40;66.00
27671;DHT22;15077;49.704;9.908;2023-01-13T17:07:06;10.40;66.00
27671;DHT22;15077;49.704;9.908;2023-01-13T17:09:33;10.40;66.30
27671;DHT22;15077;49.704;9.908;2023-01-13T17:11:59;10.30;66.20
27671;DHT22;15077;49.704;9.908;2023-01-13T17:14:25;10.30;66.20
27671;DHT22;15077;49.704;9.908;2023-01-13T17:16:55;10.30;66.40
27671;DHT22;15077;49.704;9.908;2023-01-13T17:19:22;10.30;66.60
27671;DHT22;15077;49.704;9.908;2023-01-13T17:21:48;10.20;66.70
27671;DHT22;15077;49.704;9.908;2023-01-13T17:24:15;10.20;66.90
27671;DHT22;15077;49.704;9.908;2023-01-13T17:26:46;10.20;67.00
27671;DHT22;15077;49.704;9.908;2023-01-13T17:29:21;10.20;67.20
27671;DHT22;15077;49.704;9.908;2023-01-13T17:31:50;10.20;67.40
27671;DHT22;15077;49.704;9.908;2023-01-13T17:34:16;10.10;67.30
27671;DHT22;15077;49.704;9.908;2023-01-13T17:36:43;10.10;67.50
27671;DHT22;15077;49.704;9.908;2023-01-13T17:39:17;10.10;67.70
27671;DHT22;15077;49.704;9.908;2023-01-13T17:41:45;10.00;67.80
27671;DHT22;15077;49.704;9.908;2023-01-13T17:44:15;10.10;67.80
27671;DHT22;15077;49.704;9.908;2023-01-13T17:46:43;10.00;68.10
27671;DHT22;15077;49.704;9.908;2023-01-13T17:49:14;10.00;68.00
27671;DHT22;15077;49.704;9.908;2023-01-13T17:51:41;10.00;68.10
27671;DHT22;15077;49.704;9.908;2023-01-13T17:54:08;10.00;68.10
27671;DHT22;15077;49.704;9.908;2023-01-13T17:56:38;10.00;68.10
27671;DHT22;15077;49.704;9.908;2023-01-13T17:59:04;10.00;68.20
27671;DHT22;15077;49.704;9.908;2023-01-13T18:01:30;10.00;68.30
27671;DHT22;15077;49.704;9.908;2023-01-13T18:04:00;10.00;68.40
27671;DHT22;15077;49.704;9.908;2023-01-13T18:06:27;10.10;68.60
27671;DHT22;15077;49.704;9.908;2023-01-13T18:08:57;10.00;68.50
27671;DHT22;15077;49.704;9.908;2023-01-13T18:11:26;10.00;68.50
27671;DHT22;15077;49.704;9.908;2023-01-13T18:13:53;10.00;68.60
27671;DHT22;15077;49.704;9.908;2023-01-13T18:16:21;10.00;68.60
27671;DHT22;15077;49.704;9.908;2023-01-13T18:18:49;10.10;68.60
27671;DHT22;15077;49.704;9.908;2023-01-13T18:21:25;10.10;68.70
27671;DHT22;15077;49.704;9.908;2023-01-13T18:24:14;10.10;68.80
27671;DHT22;15077;49.704;9.908;2023-01-13T18:27:00;10.10;68.70